ADDS METAR Data INFO
IDs: Format: Raw Decoded Include TAF

Data at: 0754 UTC 17 Oct 2017

KSEM 170735Z AUTO 00000KT 10SM CLR 10/09 A3018 RMK AO2 TSNO
KSEM 170715Z AUTO 00000KT 10SM CLR 10/09 A3019 RMK AO2 TSNO
KSEM 170655Z AUTO 00000KT 10SM FEW036 10/09 A3018 RMK AO2 TSNO
KSEM 170635Z AUTO 00000KT 10SM CLR 10/09 A3019 RMK AO2 TSNO
KSEM 170615Z AUTO 31004KT 10SM CLR 10/09 A3018 RMK AO2 TSNO
KSEM 170555Z AUTO 00000KT 10SM CLR 11/09 A3018 RMK AO2 TSNO
KSEM 170535Z AUTO 32003KT 10SM CLR 11/09 A3018 RMK AO2 TSNO
KSEM 170515Z AUTO 32004KT 10SM CLR 10/09 A3019 RMK AO2 TSNO
KSEM 170455Z AUTO 31004KT 10SM CLR 11/09 A3019 RMK AO2 TSNO
KSEM 170435Z AUTO 00000KT 10SM CLR 11/09 A3020 RMK AO2 TSNO
KSEM 170415Z AUTO 00000KT 10SM CLR 12/09 A3020 RMK AO2 TSNO
KSEM 170355Z AUTO 35003KT 10SM CLR 12/09 A3020 RMK AO2 TSNO
KSEM 170335Z AUTO 35004KT 10SM CLR 13/09 A3020 RMK AO2 TSNO
KSEM 170315Z AUTO 35005KT 10SM CLR 14/09 A3020 RMK AO2 TSNO
KSEM 170255Z AUTO 35004KT 10SM CLR 14/09 A3020 RMK AO2 TSNO
KSEM 170235Z AUTO 36004KT 10SM CLR 15/09 A3019 RMK AO2 TSNO
KSEM 170215Z AUTO 34006KT 10SM CLR 15/09 A3019 RMK AO2 TSNO
KSEM 170155Z AUTO 35006KT 10SM CLR 15/10 A3018 RMK AO2 TSNO
KSEM 170135Z AUTO 35006KT 10SM CLR 15/10 A3018 RMK AO2 TSNO
KSEM 170115Z AUTO 35004KT 10SM CLR 15/10 A3017 RMK AO2 TSNO
KSEM 170055Z AUTO 35005KT 10SM CLR 16/10 A3016 RMK AO2 TSNO
KSEM 170035Z AUTO 36005KT 10SM CLR 16/10 A3016 RMK AO2 TSNO
KSEM 170015Z AUTO 35006G11KT 10SM CLR 17/10 A3015 RMK AO2 TSNO
KSEM 162355Z AUTO 35006KT 10SM CLR 17/10 A3014 RMK AO2 TSNO
KSEM 162335Z AUTO 34007KT 10SM CLR 18/10 A3013 RMK AO2 TSNO
KSEM 162315Z AUTO 34006KT 10SM CLR 19/09 A3013 RMK AO2 TSNO
KSEM 162255Z AUTO 36010KT 10SM CLR 19/09 A3012 RMK AO2 TSNO
KSEM 162235Z AUTO 01009KT 10SM CLR 20/09 A3011 RMK AO2 TSNO
KSEM 162215Z AUTO 36011KT 10SM CLR 21/09 A3011 RMK AO2 TSNO
KSEM 162155Z AUTO 36012KT 10SM CLR 21/08 A3010 RMK AO2 TSNO
KSEM 162135Z AUTO 36009G17KT 10SM CLR 22/08 A3011 RMK AO2 TSNO
KSEM 162115Z AUTO 36011G18KT 10SM CLR 22/08 A3010 RMK AO2 TSNO
KSEM 162055Z AUTO 01012KT 10SM CLR 22/08 A3010 RMK AO2 TSNO
KSEM 162035Z AUTO 36012G17KT 10SM CLR 22/08 A3010 RMK AO2 TSNO
KSEM 162015Z AUTO 35012KT 10SM CLR 22/08 A3010 RMK AO2 TSNO
KSEM 161955Z AUTO 34013KT 10SM CLR 22/09 A3010 RMK AO2 TSNO
KSEM 161935Z AUTO 35010G15KT 10SM CLR 22/09 A3011 RMK AO2 TSNO
KSEM 161915Z AUTO 33009G14KT 10SM CLR 21/10 A3011 RMK AO2 TSNO
KSEM 161855Z AUTO 34009G15KT 10SM CLR 21/10 A3012 RMK AO2 TSNO
KSEM 161835Z AUTO 35011KT 10SM CLR 21/10 A3013 RMK AO2 TSNO
KSEM 161815Z AUTO 34009G17KT 10SM CLR 20/10 A3014 RMK AO2 TSNO
KSEM 161755Z AUTO 35010KT 10SM CLR 19/11 A3015 RMK AO2 TSNO
KSEM 161735Z AUTO 35010G16KT 10SM FEW019 18/11 A3016 RMK AO2 TSNO
KSEM 161715Z AUTO 34010G16KT 10SM BKN015 BKN019 17/11 A3018 RMK AO2 TSNO
KSEM 161655Z AUTO 35012KT 10SM OVC014 16/11 A3018 RMK AO2 TSNO
KSEM 161635Z AUTO 35009KT 10SM OVC012 15/11 A3019 RMK AO2 TSNO
KSEM 161615Z AUTO 34011G17KT 10SM OVC011 15/12 A3019 RMK AO2 TSNO
KSEM 161555Z AUTO 35011KT 10SM OVC009 15/12 A3019 RMK AO2 TSNO
KSEM 161535Z AUTO 33010KT 10SM OVC007 14/12 A3019 RMK AO2 TSNO
KSEM 161515Z AUTO 33010KT 10SM OVC007 14/12 A3019 RMK AO2 TSNO
KSEM 161455Z AUTO 33011KT 8SM OVC006 14/12 A3019 RMK AO2 TSNO
KSEM 161435Z AUTO 33009KT 10SM OVC007 14/12 A3019 RMK AO2 TSNO
KSEM 161415Z AUTO 33008KT 10SM OVC007 14/12 A3019 RMK AO2 TSNO
KSEM 161355Z AUTO 34009KT 10SM OVC008 14/12 A3018 RMK AO2 TSNO
KSEM 161335Z AUTO 34009G15KT 10SM OVC008 14/12 A3017 RMK AO2 TSNO
KSEM 161315Z AUTO 33012KT 10SM OVC007 14/13 A3016 RMK AO2 TSNO
KSEM 161255Z AUTO 33011KT 10SM OVC006 14/13 A3015 RMK AO2 TSNO
KSEM 161235Z AUTO 35011KT 10SM OVC006 15/14 A3014 RMK AO2 TSNO
KSEM 161215Z AUTO 33011G17KT 10SM OVC006 15/14 A3014 RMK AO2 TSNO
KSEM 161155Z AUTO 33010KT 10SM OVC006 16/15 A3013 RMK AO2 TSNO
KSEM 161135Z AUTO 33011KT 10SM -DZ BKN005 OVC008 16/15 A3011 RMK AO2 TSNO
KSEM 161115Z AUTO 34008G13KT 1 3/4SM +RA OVC004 17/15 A3011 RMK AO2 VIS 1V3 TSNO
KSEM 161055Z AUTO 31009G15KT 4SM +RA FEW004 BKN008 OVC015 17/16 A3010 RMK AO2 TSNO
KSEM 161035Z AUTO 33008G14KT 6SM -RA BKN008 BKN012 OVC016 18/17 A3009 RMK AO2 TSNO
KSEM 161015Z AUTO 33008KT 10SM BKN009 OVC013 19/17 A3008 RMK AO2 TSNO
KSEM 160955Z AUTO 34010G16KT 10SM OVC013 19/18 A3008 RMK AO2 TSNO
KSEM 160935Z AUTO 32006KT 10SM BKN010 OVC014 20/18 A3007 RMK AO2 TSNO
KSEM 160915Z AUTO 32008KT 10SM OVC010 20/18 A3006 RMK AO2 TSNO
KSEM 160855Z AUTO 32007KT 10SM SCT008 BKN012 OVC017 20/19 A3005 RMK AO2 TSNO
KSEM 160835Z AUTO 34009KT 9SM -RA OVC015 20/18 A3004 RMK AO2 TSNO
KSEM 160815Z AUTO 34011KT 10SM OVC013 21/19 A3005 RMK AO2 TSNO
KSEM 160755Z AUTO 34012G17KT 10SM OVC013 21/19 A3006 RMK AO2 TSNO
KSEM 160735Z AUTO 34011KT 10SM OVC015 21/19 A3007 RMK AO2 TSNO
KSEM 160715Z AUTO 33010KT 10SM OVC015 21/20 A3007 RMK AO2 TSNO
KSEM 160655Z AUTO 33005G11KT 10SM OVC015 22/20 A3007 RMK AO2 TSNO
KSEM 160635Z AUTO 33008KT 8SM -DZ FEW003 FEW009 OVC015 22/20 A3007 RMK AO2 TSNO
KSEM 160615Z AUTO 33008KT 3SM -RA BKN004 BKN009 OVC015 22/21 A3007 RMK AO2 TSNO
KSEM 160555Z AUTO 30007KT 9SM -RA SCT007 OVC010 23/21 A3007 RMK AO2 TSNO
KSEM 160535Z AUTO 27006KT 10SM SCT011 SCT022 OVC031 23/21 A3006 RMK AO2 TSNO
KSEM 160515Z AUTO 28005KT 9SM RA SCT025 OVC031 22/21 A3006 RMK AO2 TSNO
KSEM 160455Z AUTO 32004KT 10SM BKN024 22/21 A3006 RMK AO2 TSNO
KSEM 160435Z AUTO 00000KT 10SM FEW049 22/21 A3006 RMK AO2 TSNO
KSEM 160415Z AUTO 00000KT 10SM SCT049 22/21 A3006 RMK AO2 TSNO
KSEM 160355Z AUTO 00000KT 10SM CLR 22/21 A3006 RMK AO2 TSNO
KSEM 160335Z AUTO 18004KT 10SM CLR 21/20 A3006 RMK AO2 TSNO
KSEM 160315Z AUTO 00000KT 9SM CLR 22/21 A3006 RMK AO2 TSNO
KSEM 160255Z AUTO 00000KT 10SM CLR 22/21 A3005 RMK AO2 TSNO
KSEM 160235Z AUTO 00000KT 10SM CLR 22/21 A3005 RMK AO2 TSNO
KSEM 160215Z AUTO 00000KT 10SM CLR 22/21 A3004 RMK AO2 TSNO
KSEM 160155Z AUTO 00000KT 10SM CLR 22/21 A3004 RMK AO2 TSNO
KSEM 160135Z AUTO 00000KT 10SM CLR 23/21 A3004 RMK AO2 TSNO
KSEM 160115Z AUTO 00000KT 10SM CLR 23/21 A3004 RMK AO2 TSNO
KSEM 160055Z AUTO 00000KT 10SM CLR 23/22 A3005 RMK AO2 TSNO
KSEM 160035Z AUTO 20004KT 10SM CLR 24/22 A3005 RMK AO2 TSNO
KSEM 160015Z AUTO 18006KT 10SM CLR 24/22 A3005 RMK AO2 TSNO
KSEM 152355Z AUTO 18005KT 10SM CLR 23/22 A3005 RMK AO2 TSNO
KSEM 152335Z AUTO 18004KT 10SM CLR 24/22 A3004 RMK AO2 TSNO
KSEM 152315Z AUTO 00000KT 10SM CLR 24/22 A3003 RMK AO2 TSNO
KSEM 152255Z AUTO 28004KT 10SM CLR 25/23 A3002 RMK AO2 TSNO
KSEM 152235Z AUTO 00000KT 10SM CLR 25/23 A3000 RMK AO2 TSNO
KSEM 152215Z AUTO 17008KT 10SM CLR 25/23 A3000 RMK AO2 TSNO
KSEM 152155Z AUTO 16009KT 10SM CLR 26/23 A3001 RMK AO2 TSNO
KSEM 152135Z AUTO 13005KT 10SM FEW110 27/24 A3002 RMK AO2 TSNO
KSEM 152115Z AUTO 15003KT 10SM CLR 27/24 A3003 RMK AO2 TSNO
KSEM 152055Z AUTO 14004KT 10SM -RA FEW003 SCT032 BKN045 26/24 A3003 RMK AO2 TSNO
KSEM 152035Z AUTO 00000KT 4SM RA FEW003 BKN031 OVC065 28/23 A3003 RMK AO2 TSNO
KSEM 152015Z AUTO 10003KT 10SM SCT032 SCT043 SCT090 30/22 A3003 RMK AO2 TSNO
KSEM 151955Z AUTO VRB05KT 10SM CLR 30/22 A3003 RMK AO2 TSNO